createdAt,value
2017-07-24T00:01:42.731Z,18.67
2017-07-24T00:04:11.148Z,18.60
2017-07-24T00:06:39.572Z,18.51
2017-07-24T00:09:08.600Z,18.50
2017-07-24T00:11:36.970Z,18.28
2017-07-24T00:14:05.415Z,18.14
2017-07-24T00:16:34.839Z,18.18
2017-07-24T00:19:03.212Z,18.32
2017-07-24T00:21:31.579Z,18.25
2017-07-24T00:24:00.315Z,18.18
2017-07-24T00:26:28.716Z,18.14
2017-07-24T00:28:57.103Z,18.16
2017-07-24T00:31:26.150Z,18.15
2017-07-24T00:33:54.683Z,18.13
2017-07-24T00:36:23.114Z,18.17
2017-07-24T00:38:52.091Z,18.19
2017-07-24T00:41:21.246Z,18.29
2017-07-24T00:43:49.697Z,18.34
2017-07-24T00:46:18.396Z,18.22
2017-07-24T00:48:46.789Z,18.21
2017-07-24T00:51:15.184Z,17.89
2017-07-24T00:53:44.332Z,17.96
2017-07-24T00:56:12.727Z,17.89
2017-07-24T00:58:41.175Z,17.87
2017-07-24T01:01:10.754Z,17.85
2017-07-24T01:03:39.187Z,17.52
2017-07-24T01:06:07.624Z,17.57
2017-07-24T01:08:36.394Z,17.44
2017-07-24T01:11:04.770Z,17.48
2017-07-24T01:13:33.165Z,17.47
2017-07-24T01:16:02.124Z,17.41
2017-07-24T01:18:30.490Z,17.42
2017-07-24T01:20:58.838Z,17.54
2017-07-24T01:23:27.757Z,17.28
2017-07-24T01:25:56.175Z,17.32
2017-07-24T01:28:24.561Z,17.24
2017-07-24T01:30:53.248Z,17.27
2017-07-24T01:33:21.643Z,17.10
2017-07-24T01:35:50.063Z,17.07
2017-07-24T01:38:19.674Z,17.19
2017-07-24T01:40:48.067Z,17.10
2017-07-24T01:43:16.456Z,17.16
2017-07-24T01:45:45.126Z,17.08
2017-07-24T01:48:13.544Z,17.07
2017-07-24T01:50:41.951Z,17.09
2017-07-24T01:53:11.607Z,16.84
2017-07-24T01:55:39.985Z,17.06
2017-07-24T01:58:08.359Z,17.18
2017-07-24T02:00:37.333Z,17.34
2017-07-24T02:03:05.705Z,17.34
2017-07-24T02:05:34.113Z,17.42
2017-07-24T02:08:02.987Z,17.48
2017-07-24T02:10:31.347Z,17.48
2017-07-24T02:12:59.727Z,17.40
2017-07-24T02:15:28.431Z,17.46
2017-07-24T02:17:56.865Z,17.37
2017-07-24T02:20:25.486Z,17.13
2017-07-24T02:22:54.705Z,16.97
2017-07-24T02:25:23.075Z,17.04
2017-07-24T02:27:51.450Z,17.17
2017-07-24T02:30:20.161Z,17.18
2017-07-24T02:32:48.561Z,17.25
2017-07-24T02:35:16.970Z,17.38
2017-07-24T02:37:45.891Z,17.43
2017-07-24T02:40:14.270Z,17.42
2017-07-24T02:42:42.647Z,17.52
2017-07-24T02:45:11.707Z,17.45
2017-07-24T02:47:40.116Z,17.12
2017-07-24T02:50:08.524Z,17.21
2017-07-24T02:52:37.201Z,17.26
2017-07-24T02:55:05.627Z,17.02
2017-07-24T02:57:33.986Z,16.69
2017-07-24T03:00:02.929Z,16.68
2017-07-24T03:02:32.176Z,16.56
2017-07-24T03:05:00.566Z,16.73
2017-07-24T03:07:29.653Z,16.70
2017-07-24T03:09:58.054Z,16.79
2017-07-24T03:12:26.516Z,16.81
2017-07-24T03:14:55.250Z,16.80
2017-07-24T03:17:24.428Z,16.92
2017-07-24T03:19:52.867Z,16.97
2017-07-24T03:22:21.502Z,16.85
2017-07-24T03:24:49.911Z,16.91
2017-07-24T03:27:18.292Z,16.49
2017-07-24T03:29:47.050Z,16.50
2017-07-24T03:32:15.460Z,16.47
2017-07-24T03:34:43.837Z,16.60
2017-07-24T03:37:12.545Z,16.70
2017-07-24T03:39:40.951Z,16.78
2017-07-24T03:42:09.300Z,16.89
2017-07-24T03:44:38.198Z,16.86
2017-07-24T03:47:06.630Z,16.98
2017-07-24T03:49:35.037Z,17.15
2017-07-24T03:52:04.035Z,17.17
2017-07-24T03:54:32.419Z,17.07
2017-07-24T03:57:00.848Z,17.09
2017-07-24T03:59:29.490Z,16.96
2017-07-24T04:01:57.899Z,16.99
2017-07-24T04:04:26.311Z,17.15
2017-07-24T04:06:55.131Z,17.33
2017-07-24T04:09:23.516Z,17.35
2017-07-24T04:11:51.904Z,17.40
2017-07-24T04:14:20.676Z,17.46
2017-07-24T04:16:49.108Z,17.52
2017-07-24T04:19:17.531Z,17.66
2017-07-24T04:21:46.428Z,17.76
2017-07-24T04:24:14.859Z,17.81
2017-07-24T04:26:43.238Z,17.78
2017-07-24T04:29:11.896Z,17.81
2017-07-24T04:31:40.298Z,17.82
2017-07-24T04:34:08.719Z,17.64
2017-07-24T04:36:37.469Z,17.70
2017-07-24T04:39:05.873Z,17.51
2017-07-24T04:41:35.098Z,17.78
2017-07-24T04:44:03.991Z,17.88
2017-07-24T04:46:32.378Z,18.06
2017-07-24T04:49:00.824Z,18.29
2017-07-24T04:51:30.242Z,18.32
2017-07-24T04:53:58.696Z,18.41
2017-07-24T04:56:27.081Z,18.56
2017-07-24T04:58:56.960Z,18.46
2017-07-24T05:01:25.355Z,18.31
2017-07-24T05:03:53.912Z,18.52
2017-07-24T05:06:22.538Z,18.63
2017-07-24T05:08:50.942Z,18.89
2017-07-24T05:11:19.327Z,19.04
2017-07-24T05:13:48.135Z,18.85
2017-07-24T05:16:16.543Z,18.93
2017-07-24T05:18:44.944Z,18.87
2017-07-24T05:21:13.786Z,18.80
2017-07-24T05:23:42.206Z,18.77
2017-07-24T05:26:10.652Z,18.72
2017-07-24T05:28:39.383Z,18.53
2017-07-24T05:31:07.795Z,18.77
2017-07-24T05:33:36.211Z,19.00
2017-07-24T05:36:04.919Z,18.61
2017-07-24T05:38:33.307Z,19.01
2017-07-24T05:41:02.557Z,19.33
2017-07-24T05:43:31.431Z,19.47
2017-07-24T05:45:59.844Z,19.58
2017-07-24T05:48:28.259Z,19.46
2017-07-24T05:50:57.109Z,19.55
2017-07-24T05:53:25.502Z,19.83
2017-07-24T05:55:53.960Z,20.28
2017-07-24T05:58:22.582Z,20.39
2017-07-24T06:00:50.998Z,20.64
2017-07-24T06:03:19.416Z,20.68
2017-07-24T06:05:48.622Z,20.59
2017-07-24T06:08:17.040Z,20.43
2017-07-24T06:10:45.461Z,20.77
2017-07-24T06:13:14.188Z,21.10
2017-07-24T06:15:42.555Z,21.33
2017-07-24T06:18:10.995Z,21.53
2017-07-24T06:20:39.705Z,21.78
2017-07-24T06:23:08.178Z,21.85
2017-07-24T06:25:36.628Z,21.74
2017-07-24T06:28:05.561Z,21.83
2017-07-24T06:30:34.009Z,22.07
2017-07-24T06:33:02.412Z,22.06
2017-07-24T06:35:31.096Z,22.00
2017-07-24T06:37:59.525Z,22.37
2017-07-24T06:40:27.932Z,22.87
2017-07-24T06:42:56.823Z,23.16
2017-07-24T06:45:25.233Z,22.98
2017-07-24T06:47:53.712Z,23.14
2017-07-24T06:50:22.760Z,23.02
2017-07-24T06:52:51.198Z,23.23
2017-07-24T06:55:19.606Z,23.40
2017-07-24T06:57:48.502Z,23.47
2017-07-24T07:00:16.920Z,23.49
2017-07-24T07:02:45.399Z,23.77
2017-07-24T07:05:14.314Z,23.56
2017-07-24T07:07:42.771Z,24.00
2017-07-24T07:10:11.988Z,24.24
2017-07-24T07:12:40.692Z,24.26
2017-07-24T07:15:09.204Z,23.95
2017-07-24T07:17:37.640Z,24.47
2017-07-24T07:20:06.579Z,24.56
2017-07-24T07:22:35.018Z,23.65
2017-07-24T07:25:03.607Z,23.76
2017-07-24T07:27:32.426Z,23.77
2017-07-24T07:30:00.852Z,23.80
2017-07-24T07:32:29.277Z,24.40
2017-07-24T07:34:58.239Z,24.54
2017-07-24T07:37:26.690Z,24.82
2017-07-24T07:39:55.165Z,24.93
2017-07-24T07:42:23.899Z,24.87
2017-07-24T07:44:52.296Z,24.31
2017-07-24T07:47:20.749Z,24.72
2017-07-24T07:49:49.439Z,25.03
2017-07-24T07:52:17.855Z,24.84
2017-07-24T07:54:46.305Z,24.74
2017-07-24T07:57:15.388Z,25.06
2017-07-24T07:59:43.816Z,25.24
2017-07-24T08:02:12.221Z,24.44
2017-07-24T08:04:40.879Z,24.15
2017-07-24T08:07:09.234Z,23.99
2017-07-24T08:09:37.652Z,24.98
2017-07-24T08:12:06.352Z,25.46
2017-07-24T08:14:34.818Z,26.28
2017-07-24T08:17:03.246Z,26.65
2017-07-24T08:19:32.159Z,25.32
2017-07-24T08:22:00.624Z,24.74
2017-07-24T08:24:29.015Z,25.56
2017-07-24T08:26:57.808Z,25.59
2017-07-24T08:29:26.216Z,25.42
2017-07-24T08:31:54.625Z,25.03
2017-07-24T08:34:24.094Z,25.39
2017-07-24T08:36:52.571Z,25.01
2017-07-24T08:39:21.025Z,25.16
2017-07-24T08:41:50.150Z,25.06
2017-07-24T08:44:18.544Z,25.69
2017-07-24T08:46:46.904Z,26.08
2017-07-24T08:49:15.605Z,26.73
2017-07-24T08:51:44.066Z,27.12
2017-07-24T08:54:12.502Z,27.48
2017-07-24T08:56:41.411Z,27.80
2017-07-24T08:59:09.817Z,27.58
2017-07-24T09:01:38.245Z,27.30
2017-07-24T09:04:08.029Z,26.80
2017-07-24T09:06:36.468Z,26.76
2017-07-24T09:09:04.847Z,27.15
2017-07-24T09:11:33.643Z,28.24
2017-07-24T09:14:02.059Z,29.12
2017-07-24T09:16:30.495Z,29.17
2017-07-24T09:18:59.401Z,29.58
2017-07-24T09:21:27.838Z,29.83
2017-07-24T09:23:56.320Z,29.69
2017-07-24T09:26:25.343Z,29.82
2017-07-24T09:28:53.766Z,29.78
2017-07-24T09:31:22.314Z,28.48
2017-07-24T09:33:51.220Z,28.93
2017-07-24T09:36:19.627Z,29.71
2017-07-24T09:38:48.824Z,29.90
2017-07-24T09:41:17.506Z,29.24
2017-07-24T09:43:45.877Z,28.87
2017-07-24T09:46:14.258Z,28.13
2017-07-24T09:48:43.021Z,27.92
2017-07-24T09:51:11.430Z,29.11
2017-07-24T09:53:39.883Z,29.37
2017-07-24T09:56:08.694Z,28.70
2017-07-24T09:58:37.079Z,28.94
2017-07-24T10:01:05.434Z,28.75
2017-07-24T10:03:34.142Z,28.28
2017-07-24T10:06:02.528Z,28.41
2017-07-24T10:08:30.929Z,28.31
2017-07-24T10:11:00.089Z,28.19
2017-07-24T10:13:28.445Z,29.05
2017-07-24T10:15:56.856Z,28.89
2017-07-24T10:18:25.567Z,29.01
2017-07-24T10:20:54.019Z,29.15
2017-07-24T10:23:22.431Z,29.34
2017-07-24T10:25:52.013Z,28.72
2017-07-24T10:28:20.399Z,29.00
2017-07-24T10:30:48.819Z,28.78
2017-07-24T10:33:17.748Z,28.26
2017-07-24T10:35:46.133Z,28.04
2017-07-24T10:38:14.555Z,27.68
2017-07-24T10:40:43.222Z,27.51
2017-07-24T10:43:11.655Z,27.41
2017-07-24T10:45:40.037Z,27.45
2017-07-24T10:48:08.859Z,26.59
2017-07-24T10:50:37.362Z,27.34
2017-07-24T10:53:05.796Z,27.59
2017-07-24T10:55:34.686Z,27.37
2017-07-24T10:58:03.090Z,27.63
2017-07-24T11:00:31.509Z,27.19
2017-07-24T11:03:00.304Z,27.34
2017-07-24T11:05:28.697Z,27.82
2017-07-24T11:07:57.996Z,27.78
2017-07-24T11:10:26.798Z,28.09
2017-07-24T11:12:55.282Z,27.93
2017-07-24T11:15:23.680Z,27.85
2017-07-24T11:17:52.528Z,27.77
2017-07-24T11:20:20.984Z,28.06
2017-07-24T11:22:49.395Z,28.04
2017-07-24T11:25:18.121Z,27.95
2017-07-24T11:27:46.583Z,27.98
2017-07-24T11:30:15.031Z,28.07
2017-07-24T11:32:43.738Z,27.83
2017-07-24T11:35:12.151Z,27.88
2017-07-24T11:37:40.627Z,27.45
2017-07-24T11:40:09.555Z,26.83
2017-07-24T11:42:38.013Z,26.80
2017-07-24T11:45:06.438Z,26.64
2017-07-24T11:47:36.000Z,26.48
2017-07-24T11:50:04.396Z,26.51
2017-07-24T11:52:32.758Z,26.57
2017-07-24T11:55:01.444Z,26.20
2017-07-24T11:57:29.790Z,26.12
2017-07-24T11:59:58.148Z,26.11
2017-07-24T12:02:27.005Z,26.14
2017-07-24T12:04:55.397Z,26.17
2017-07-24T12:07:23.738Z,26.08
2017-07-24T12:09:52.639Z,26.31
2017-07-24T12:12:20.967Z,26.37
2017-07-24T12:14:49.317Z,26.39
2017-07-24T12:17:17.934Z,26.55
2017-07-24T12:19:46.295Z,26.45
2017-07-24T12:22:14.691Z,26.52
2017-07-24T12:24:43.742Z,26.61
2017-07-24T12:27:12.122Z,26.68
2017-07-24T12:29:40.508Z,26.70
2017-07-24T12:32:09.176Z,26.79
2017-07-24T12:34:37.520Z,26.72
2017-07-24T12:37:06.717Z,26.74
2017-07-24T12:39:35.434Z,26.78
2017-07-24T12:42:04.329Z,26.85
2017-07-24T12:44:32.663Z,27.00
2017-07-24T12:47:01.747Z,26.88
2017-07-24T12:49:30.143Z,27.17
2017-07-24T12:51:58.517Z,27.37
2017-07-24T12:54:27.201Z,27.46
2017-07-24T12:56:55.620Z,27.47
2017-07-24T12:59:24.007Z,27.55
2017-07-24T13:01:52.698Z,27.63
2017-07-24T13:04:21.124Z,27.83
2017-07-24T13:06:50.304Z,27.79
2017-07-24T13:09:19.267Z,27.69
2017-07-24T13:11:47.640Z,27.42
2017-07-24T13:14:16.058Z,27.43
2017-07-24T13:16:44.798Z,27.23
2017-07-24T13:19:13.236Z,27.18
2017-07-24T13:21:41.633Z,27.02
2017-07-24T13:24:10.350Z,27.02
2017-07-24T13:26:38.716Z,26.95
2017-07-24T13:29:07.066Z,26.86
2017-07-24T13:31:35.947Z,26.88
2017-07-24T13:34:04.360Z,26.82
2017-07-24T13:36:33.587Z,26.61
2017-07-24T13:39:02.254Z,26.41
2017-07-24T13:41:30.664Z,26.37
2017-07-24T13:43:59.308Z,26.06
2017-07-24T13:46:28.857Z,25.89
2017-07-24T13:48:57.305Z,25.83
2017-07-24T13:51:25.770Z,25.66
2017-07-24T13:53:54.591Z,25.60
2017-07-24T13:56:22.952Z,25.35
2017-07-24T13:58:52.066Z,24.92
2017-07-24T14:01:20.858Z,24.95
2017-07-24T14:03:49.222Z,24.66
2017-07-24T14:06:17.571Z,24.58
2017-07-24T14:08:46.349Z,24.46
2017-07-24T14:11:14.702Z,24.35
2017-07-24T14:13:43.084Z,24.52
2017-07-24T14:16:11.943Z,24.40
2017-07-24T14:18:40.292Z,24.18
2017-07-24T14:21:08.638Z,24.05
2017-07-24T14:23:37.297Z,24.07
2017-07-24T14:26:05.684Z,24.13
2017-07-24T14:28:34.152Z,24.25
2017-07-24T14:31:02.791Z,24.26
2017-07-24T14:33:31.139Z,24.46
2017-07-24T14:35:59.470Z,24.58
2017-07-24T14:38:29.118Z,24.65
2017-07-24T14:40:57.458Z,24.61
2017-07-24T14:43:26.574Z,24.40
2017-07-24T14:45:55.369Z,24.36
2017-07-24T14:48:23.715Z,24.20
2017-07-24T14:50:52.068Z,24.39
2017-07-24T14:53:20.958Z,24.31
2017-07-24T14:55:49.322Z,24.27
2017-07-24T14:58:17.673Z,24.40
2017-07-24T15:00:46.558Z,24.38
2017-07-24T15:03:14.897Z,24.39
2017-07-24T15:05:43.235Z,24.40
2017-07-24T15:08:11.993Z,24.31
2017-07-24T15:10:41.125Z,24.34
2017-07-24T15:13:09.534Z,24.36
2017-07-24T15:15:38.195Z,24.26
2017-07-24T15:18:06.550Z,24.02
2017-07-24T15:20:34.900Z,23.99
2017-07-24T15:23:03.774Z,24.12
2017-07-24T15:25:32.151Z,24.09
2017-07-24T15:28:00.485Z,24.25
2017-07-24T15:30:29.152Z,24.47
2017-07-24T15:32:57.501Z,24.40
2017-07-24T15:35:25.836Z,24.36
2017-07-24T15:37:54.719Z,24.50
2017-07-24T15:40:23.066Z,24.36
2017-07-24T15:42:52.177Z,24.39
2017-07-24T15:45:22.414Z,24.35
2017-07-24T15:47:50.810Z,24.33
2017-07-24T15:50:19.201Z,24.24
2017-07-24T15:52:47.910Z,24.20
2017-07-24T15:55:16.304Z,24.42
2017-07-24T15:57:46.495Z,24.34
2017-07-24T16:00:15.446Z,24.27
2017-07-24T16:02:43.859Z,24.15
2017-07-24T16:05:12.297Z,24.22
2017-07-24T16:07:41.252Z,24.23
2017-07-24T16:10:09.644Z,24.29
2017-07-24T16:12:38.016Z,24.09
2017-07-24T16:15:06.685Z,23.93
2017-07-24T16:17:35.080Z,23.94
2017-07-24T16:20:03.446Z,23.97
2017-07-24T16:22:32.118Z,23.90
2017-07-24T16:25:00.484Z,23.88
2017-07-24T16:27:28.852Z,23.83
2017-07-24T16:29:57.966Z,23.82
2017-07-24T16:32:26.325Z,23.77
2017-07-24T16:34:54.918Z,23.85
2017-07-24T16:37:23.600Z,23.81
2017-07-24T16:39:51.957Z,23.80
2017-07-24T16:42:21.140Z,23.81
2017-07-24T16:44:49.828Z,23.71
2017-07-24T16:47:18.233Z,23.81
2017-07-24T16:49:46.579Z,23.77
2017-07-24T16:54:42.965Z,23.67
2017-07-24T16:57:11.345Z,23.57
2017-07-24T16:59:40.148Z,23.48
2017-07-24T17:02:08.536Z,23.31
2017-07-24T17:04:36.892Z,23.58
2017-07-24T17:07:05.575Z,23.50
2017-07-24T17:09:33.938Z,23.47
2017-07-24T17:12:03.062Z,23.53
2017-07-24T17:14:31.881Z,23.61
2017-07-24T17:17:00.243Z,23.55
2017-07-24T17:19:28.618Z,23.49
2017-07-24T17:21:57.306Z,23.42
2017-07-24T17:24:25.683Z,23.28
2017-07-24T17:26:54.108Z,23.29
2017-07-24T17:29:22.964Z,23.24
2017-07-24T17:31:51.325Z,23.24
2017-07-24T17:34:19.658Z,23.14
2017-07-24T17:36:48.613Z,23.12
2017-07-24T17:39:16.959Z,23.28
2017-07-24T17:41:46.078Z,23.11
2017-07-24T17:44:14.868Z,23.19
2017-07-24T17:46:43.271Z,23.17
2017-07-24T17:49:11.642Z,23.07
2017-07-24T17:51:40.327Z,23.08
2017-07-24T17:54:08.700Z,23.03
2017-07-24T17:56:37.055Z,22.83
2017-07-24T17:59:06.007Z,22.57
2017-07-24T18:01:34.379Z,22.55
2017-07-24T18:04:02.717Z,22.50
2017-07-24T18:06:31.611Z,22.29
2017-07-24T18:08:59.991Z,22.10
2017-07-24T18:11:28.369Z,21.89
2017-07-24T18:13:57.275Z,21.89
2017-07-24T18:16:25.636Z,21.84
2017-07-24T18:18:54.006Z,21.79
2017-07-24T18:21:22.901Z,21.78
2017-07-24T18:23:51.254Z,21.69
2017-07-24T18:26:19.615Z,21.78
2017-07-24T18:28:48.381Z,21.46
2017-07-24T18:31:16.771Z,21.52
2017-07-24T18:33:45.188Z,21.35
2017-07-24T18:36:14.640Z,21.34
2017-07-24T18:38:43.050Z,21.27
2017-07-24T18:41:11.413Z,21.27
2017-07-24T18:43:40.427Z,21.01
2017-07-24T18:46:08.795Z,21.07
2017-07-24T18:48:37.141Z,21.05
2017-07-24T18:51:05.949Z,21.12
2017-07-24T18:53:34.300Z,21.11
2017-07-24T18:56:02.665Z,21.25
2017-07-24T18:58:31.323Z,21.31
2017-07-24T19:00:59.695Z,21.14
2017-07-24T19:03:28.072Z,21.21
2017-07-24T19:05:57.107Z,21.19
2017-07-24T19:08:25.481Z,21.14
2017-07-24T19:10:53.834Z,21.24
2017-07-24T19:13:22.691Z,21.18
2017-07-24T19:15:51.062Z,21.25
2017-07-24T19:18:19.420Z,21.25
2017-07-24T19:20:48.311Z,21.30
2017-07-24T19:23:16.673Z,21.25
2017-07-24T19:25:45.032Z,21.37
2017-07-24T19:28:14.036Z,21.21
2017-07-24T19:30:43.166Z,20.99
2017-07-24T19:33:11.567Z,21.15
2017-07-24T19:35:40.323Z,21.01
2017-07-24T19:38:08.674Z,21.15
2017-07-24T19:40:37.062Z,21.16
2017-07-24T19:43:06.520Z,21.01
2017-07-24T19:45:34.896Z,21.13
2017-07-24T19:48:03.277Z,20.95
2017-07-24T19:50:32.982Z,20.94
2017-07-24T19:53:01.331Z,20.75
2017-07-24T19:55:29.699Z,20.80
2017-07-24T19:57:58.376Z,20.80
2017-07-24T20:00:26.726Z,20.77
2017-07-24T20:02:55.058Z,20.79
2017-07-24T20:05:23.731Z,20.67
2017-07-24T20:07:52.855Z,20.68
2017-07-24T20:10:21.217Z,20.64
2017-07-24T20:12:50.145Z,20.84
2017-07-24T20:15:18.503Z,20.80
2017-07-24T20:17:46.846Z,20.72
2017-07-24T20:20:15.486Z,20.74
2017-07-24T20:22:43.838Z,20.66
2017-07-24T20:25:12.195Z,20.49
2017-07-24T20:27:41.051Z,20.67
2017-07-24T20:30:09.424Z,20.64
2017-07-24T20:32:37.780Z,20.70
2017-07-24T20:35:06.635Z,20.48
2017-07-24T20:37:35.000Z,20.57
2017-07-24T20:40:03.377Z,20.71
2017-07-24T20:42:32.162Z,20.59
2017-07-24T20:45:00.533Z,20.61
2017-07-24T20:47:28.889Z,20.73
2017-07-24T20:49:57.797Z,20.66
2017-07-24T20:52:26.170Z,20.68
2017-07-24T20:54:54.553Z,20.62
2017-07-24T20:57:23.250Z,20.46
2017-07-24T20:59:51.617Z,20.50
2017-07-24T21:02:19.993Z,20.49
2017-07-24T21:04:48.628Z,20.58
2017-07-24T21:07:16.986Z,20.56
2017-07-24T21:09:45.339Z,20.59
2017-07-24T21:12:14.098Z,20.57
2017-07-24T21:14:42.482Z,20.56
2017-07-24T21:17:10.856Z,20.65
2017-07-24T21:19:39.853Z,20.63
2017-07-24T21:22:08.198Z,20.77
2017-07-24T21:24:36.559Z,20.80
2017-07-24T21:27:05.520Z,20.74
2017-07-24T21:29:34.003Z,20.58
2017-07-24T21:32:02.391Z,20.67
2017-07-24T21:34:31.146Z,20.44
2017-07-24T21:36:59.529Z,20.47
2017-07-24T21:39:27.910Z,20.38
2017-07-24T21:41:56.828Z,20.39
2017-07-24T21:44:25.401Z,20.29
2017-07-24T21:46:53.754Z,20.40
2017-07-24T21:49:22.552Z,20.34
2017-07-24T21:51:50.925Z,20.25
2017-07-24T21:54:19.274Z,20.31
2017-07-24T21:56:48.190Z,20.17
2017-07-24T21:59:16.547Z,20.18
2017-07-24T22:01:44.895Z,20.10
2017-07-24T22:04:13.746Z,20.03
2017-07-24T22:06:42.091Z,20.23
2017-07-24T22:09:10.447Z,20.31
2017-07-24T22:11:39.278Z,20.37
2017-07-24T22:14:07.640Z,20.25
2017-07-24T22:16:35.983Z,20.26
2017-07-24T22:19:04.738Z,20.22
2017-07-24T22:21:33.092Z,20.37
2017-07-24T22:24:01.443Z,20.40
2017-07-24T22:26:30.268Z,20.48
2017-07-24T22:28:59.393Z,20.34
2017-07-24T22:31:27.730Z,20.49
2017-07-24T22:33:56.274Z,20.59
2017-07-24T22:36:24.621Z,20.60
2017-07-24T22:38:52.981Z,20.43
2017-07-24T22:41:21.513Z,20.56
2017-07-24T22:43:49.847Z,20.70
2017-07-24T22:46:18.197Z,20.63
2017-07-24T22:48:47.121Z,20.62
2017-07-24T22:51:15.477Z,20.57
2017-07-24T22:53:43.815Z,20.63
2017-07-24T22:56:12.330Z,20.64
2017-07-24T22:58:40.700Z,20.70
2017-07-24T23:01:09.055Z,20.64
2017-07-24T23:03:37.581Z,20.47
2017-07-24T23:06:05.943Z,20.31
2017-07-24T23:08:34.334Z,20.27
2017-07-24T23:11:03.245Z,20.28
2017-07-24T23:13:31.611Z,20.16
2017-07-24T23:15:59.956Z,20.26
2017-07-24T23:18:28.705Z,20.13
2017-07-24T23:20:57.044Z,20.15
2017-07-24T23:23:25.383Z,20.15
2017-07-24T23:25:53.912Z,20.19
2017-07-24T23:28:22.266Z,20.27
2017-07-24T23:30:50.632Z,20.35
2017-07-24T23:33:19.404Z,20.19
2017-07-24T23:35:47.772Z,20.18
2017-07-24T23:38:16.119Z,20.18
2017-07-24T23:40:44.774Z,20.15
2017-07-24T23:43:13.106Z,20.23
2017-07-24T23:45:41.453Z,20.22
2017-07-24T23:48:10.020Z,20.29
2017-07-24T23:50:38.379Z,20.22
2017-07-24T23:53:06.725Z,20.23
2017-07-24T23:55:35.723Z,20.28
2017-07-24T23:58:04.077Z,20.27
